sensor_id;sensor_type;location;lat;lon;timestamp;P1;durP1;ratioP1;P2;durP2;ratioP2
45408;SDS011;31162;51.076;3.784;2023-09-07T00:00:48;12.13;;;10.95;;
45408;SDS011;31162;51.076;3.784;2023-09-07T00:03:14;12.23;;;11.07;;
45408;SDS011;31162;51.076;3.784;2023-09-07T00:05:40;11.90;;;10.68;;
45408;SDS011;31162;51.076;3.784;2023-09-07T00:08:06;12.07;;;10.95;;
45408;SDS011;31162;51.076;3.784;2023-09-07T00:10:33;11.82;;;10.63;;
45408;SDS011;31162;51.076;3.784;2023-09-07T00:13:02;12.20;;;11.18;;
45408;SDS011;31162;51.076;3.784;2023-09-07T00:15:28;12.18;;;10.98;;
45408;SDS011;31162;51.076;3.784;2023-09-07T00:17:55;11.95;;;10.88;;
45408;SDS011;31162;51.076;3.784;2023-09-07T00:20:21;12.30;;;10.98;;
45408;SDS011;31162;51.076;3.784;2023-09-07T00:22:48;13.45;;;12.05;;
45408;SDS011;31162;51.076;3.784;2023-09-07T00:25:14;13.15;;;11.85;;
45408;SDS011;31162;51.076;3.784;2023-09-07T00:27:40;12.80;;;11.70;;
45408;SDS011;31162;51.076;3.784;2023-09-07T00:30:06;12.82;;;11.57;;
45408;SDS011;31162;51.076;3.784;2023-09-07T00:32:35;13.30;;;12.02;;
45408;SDS011;31162;51.076;3.784;2023-09-07T00:35:02;13.13;;;11.93;;
45408;SDS011;31162;51.076;3.784;2023-09-07T00:37:28;13.15;;;11.70;;
45408;SDS011;31162;51.076;3.784;2023-09-07T00:39:54;14.18;;;12.43;;
45408;SDS011;31162;51.076;3.784;2023-09-07T00:42:19;13.43;;;12.23;;
45408;SDS011;31162;51.076;3.784;2023-09-07T00:44:45;13.48;;;12.38;;
45408;SDS011;31162;51.076;3.784;2023-09-07T00:47:12;13.13;;;11.93;;
45408;SDS011;31162;51.076;3.784;2023-09-07T00:49:38;14.43;;;13.20;;
45408;SDS011;31162;51.076;3.784;2023-09-07T00:52:05;13.68;;;12.32;;
45408;SDS011;31162;51.076;3.784;2023-09-07T00:54:32;14.10;;;12.73;;
45408;SDS011;31162;51.076;3.784;2023-09-07T00:56:59;15.75;;;14.05;;
45408;SDS011;31162;51.076;3.784;2023-09-07T00:59:25;14.40;;;13.10;;
45408;SDS011;31162;51.076;3.784;2023-09-07T01:01:50;14.65;;;13.32;;
45408;SDS011;31162;51.076;3.784;2023-09-07T01:04:16;15.73;;;14.15;;
45408;SDS011;31162;51.076;3.784;2023-09-07T01:06:46;15.18;;;13.82;;
45408;SDS011;31162;51.076;3.784;2023-09-07T01:09:21;15.98;;;14.38;;
45408;SDS011;31162;51.076;3.784;2023-09-07T01:11:49;15.98;;;14.48;;
45408;SDS011;31162;51.076;3.784;2023-09-07T01:14:18;19.40;;;14.35;;
45408;SDS011;31162;51.076;3.784;2023-09-07T01:16:43;15.10;;;13.77;;
45408;SDS011;31162;51.076;3.784;2023-09-07T01:19:09;15.95;;;14.43;;
45408;SDS011;31162;51.076;3.784;2023-09-07T01:21:38;15.18;;;13.77;;
45408;SDS011;31162;51.076;3.784;2023-09-07T01:24:06;16.80;;;15.20;;
45408;SDS011;31162;51.076;3.784;2023-09-07T01:26:33;16.85;;;15.32;;
45408;SDS011;31162;51.076;3.784;2023-09-07T01:29:00;15.93;;;14.43;;
45408;SDS011;31162;51.076;3.784;2023-09-07T01:31:26;16.48;;;14.88;;
45408;SDS011;31162;51.076;3.784;2023-09-07T01:33:52;17.98;;;15.23;;
45408;SDS011;31162;51.076;3.784;2023-09-07T01:36:17;16.33;;;14.68;;
45408;SDS011;31162;51.076;3.784;2023-09-07T01:38:43;16.38;;;13.95;;
45408;SDS011;31162;51.076;3.784;2023-09-07T01:41:08;15.82;;;14.32;;
45408;SDS011;31162;51.076;3.784;2023-09-07T01:43:35;16.70;;;15.10;;
45408;SDS011;31162;51.076;3.784;2023-09-07T01:46:00;16.65;;;14.88;;
45408;SDS011;31162;51.076;3.784;2023-09-07T01:48:26;17.38;;;15.65;;
45408;SDS011;31162;51.076;3.784;2023-09-07T01:50:52;16.92;;;15.20;;
45408;SDS011;31162;51.076;3.784;2023-09-07T01:53:18;16.98;;;15.27;;
45408;SDS011;31162;51.076;3.784;2023-09-07T01:55:44;18.48;;;16.60;;
45408;SDS011;31162;51.076;3.784;2023-09-07T01:58:10;17.35;;;15.85;;
45408;SDS011;31162;51.076;3.784;2023-09-07T02:00:36;17.52;;;15.93;;
45408;SDS011;31162;51.076;3.784;2023-09-07T02:03:04;17.38;;;15.68;;
45408;SDS011;31162;51.076;3.784;2023-09-07T02:05:30;16.50;;;15.10;;
45408;SDS011;31162;51.076;3.784;2023-09-07T02:07:57;17.30;;;15.60;;
45408;SDS011;31162;51.076;3.784;2023-09-07T02:10:23;17.50;;;14.98;;
45408;SDS011;31162;51.076;3.784;2023-09-07T02:12:49;16.85;;;15.20;;
45408;SDS011;31162;51.076;3.784;2023-09-07T02:15:14;17.05;;;15.55;;
45408;SDS011;31162;51.076;3.784;2023-09-07T02:17:40;17.27;;;15.52;;
45408;SDS011;31162;51.076;3.784;2023-09-07T02:20:09;18.10;;;16.40;;
45408;SDS011;31162;51.076;3.784;2023-09-07T02:22:36;19.60;;;17.63;;
45408;SDS011;31162;51.076;3.784;2023-09-07T02:25:02;18.80;;;17.00;;
45408;SDS011;31162;51.076;3.784;2023-09-07T02:27:30;18.52;;;16.63;;
45408;SDS011;31162;51.076;3.784;2023-09-07T02:29:57;18.60;;;16.83;;
45408;SDS011;31162;51.076;3.784;2023-09-07T02:32:22;17.77;;;15.90;;
45408;SDS011;31162;51.076;3.784;2023-09-07T02:34:48;18.63;;;16.83;;
45408;SDS011;31162;51.076;3.784;2023-09-07T02:37:14;19.50;;;17.55;;
45408;SDS011;31162;51.076;3.784;2023-09-07T02:39:41;18.33;;;16.42;;
45408;SDS011;31162;51.076;3.784;2023-09-07T02:42:07;19.60;;;17.83;;
45408;SDS011;31162;51.076;3.784;2023-09-07T02:44:33;19.67;;;17.77;;
45408;SDS011;31162;51.076;3.784;2023-09-07T02:46:58;19.98;;;18.05;;
45408;SDS011;31162;51.076;3.784;2023-09-07T02:49:24;19.48;;;17.58;;
45408;SDS011;31162;51.076;3.784;2023-09-07T02:51:49;20.15;;;18.35;;
45408;SDS011;31162;51.076;3.784;2023-09-07T02:54:15;20.00;;;18.20;;
45408;SDS011;31162;51.076;3.784;2023-09-07T02:56:41;18.83;;;16.52;;
45408;SDS011;31162;51.076;3.784;2023-09-07T02:59:08;18.45;;;16.67;;
45408;SDS011;31162;51.076;3.784;2023-09-07T03:01:34;20.73;;;18.73;;
45408;SDS011;31162;51.076;3.784;2023-09-07T03:04:00;19.60;;;17.55;;
45408;SDS011;31162;51.076;3.784;2023-09-07T03:06:25;18.73;;;17.00;;
45408;SDS011;31162;51.076;3.784;2023-09-07T03:08:51;20.35;;;18.40;;
45408;SDS011;31162;51.076;3.784;2023-09-07T03:11:19;20.48;;;18.52;;
45408;SDS011;31162;51.076;3.784;2023-09-07T03:13:45;19.55;;;17.70;;
45408;SDS011;31162;51.076;3.784;2023-09-07T03:16:10;20.70;;;18.60;;
45408;SDS011;31162;51.076;3.784;2023-09-07T03:18:36;19.17;;;17.27;;
45408;SDS011;31162;51.076;3.784;2023-09-07T03:21:02;20.13;;;18.23;;
45408;SDS011;31162;51.076;3.784;2023-09-07T03:23:28;21.73;;;19.73;;
45408;SDS011;31162;51.076;3.784;2023-09-07T03:25:55;22.00;;;19.77;;
45408;SDS011;31162;51.076;3.784;2023-09-07T03:28:22;21.45;;;19.50;;
45408;SDS011;31162;51.076;3.784;2023-09-07T03:30:47;20.35;;;18.35;;
45408;SDS011;31162;51.076;3.784;2023-09-07T03:33:13;20.63;;;18.00;;
45408;SDS011;31162;51.076;3.784;2023-09-07T03:35:39;22.25;;;20.25;;
45408;SDS011;31162;51.076;3.784;2023-09-07T03:38:06;20.60;;;18.73;;
45408;SDS011;31162;51.076;3.784;2023-09-07T03:40:35;20.58;;;18.60;;
45408;SDS011;31162;51.076;3.784;2023-09-07T03:43:00;20.75;;;18.90;;
45408;SDS011;31162;51.076;3.784;2023-09-07T03:45:26;20.05;;;18.15;;
45408;SDS011;31162;51.076;3.784;2023-09-07T03:47:52;20.42;;;18.52;;
45408;SDS011;31162;51.076;3.784;2023-09-07T03:50:17;19.85;;;17.95;;
45408;SDS011;31162;51.076;3.784;2023-09-07T03:52:43;21.38;;;19.25;;
45408;SDS011;31162;51.076;3.784;2023-09-07T03:55:08;20.15;;;18.05;;
45408;SDS011;31162;51.076;3.784;2023-09-07T03:57:34;19.85;;;17.83;;
45408;SDS011;31162;51.076;3.784;2023-09-07T04:00:00;21.17;;;18.98;;
45408;SDS011;31162;51.076;3.784;2023-09-07T04:02:26;19.90;;;18.00;;
45408;SDS011;31162;51.076;3.784;2023-09-07T04:04:52;19.85;;;17.98;;
45408;SDS011;31162;51.076;3.784;2023-09-07T04:07:18;19.15;;;17.30;;
45408;SDS011;31162;51.076;3.784;2023-09-07T04:09:44;20.75;;;18.52;;
45408;SDS011;31162;51.076;3.784;2023-09-07T04:12:10;19.77;;;17.88;;
45408;SDS011;31162;51.076;3.784;2023-09-07T04:14:36;19.42;;;17.60;;
45408;SDS011;31162;51.076;3.784;2023-09-07T04:17:03;20.00;;;18.10;;
45408;SDS011;31162;51.076;3.784;2023-09-07T04:19:29;21.85;;;19.58;;
45408;SDS011;31162;51.076;3.784;2023-09-07T04:21:58;21.73;;;19.67;;
45408;SDS011;31162;51.076;3.784;2023-09-07T04:24:27;21.48;;;19.48;;
45408;SDS011;31162;51.076;3.784;2023-09-07T04:26:53;304.48;;;275.58;;
45408;SDS011;31162;51.076;3.784;2023-09-07T04:29:23;297.73;;;271.15;;
45408;SDS011;31162;51.076;3.784;2023-09-07T04:31:49;263.05;;;239.32;;
45408;SDS011;31162;51.076;3.784;2023-09-07T04:34:14;24.90;;;22.50;;
45408;SDS011;31162;51.076;3.784;2023-09-07T04:36:40;22.25;;;19.80;;
45408;SDS011;31162;51.076;3.784;2023-09-07T04:39:06;22.27;;;19.85;;
45408;SDS011;31162;51.076;3.784;2023-09-07T04:41:34;22.33;;;20.02;;
45408;SDS011;31162;51.076;3.784;2023-09-07T04:43:59;24.15;;;21.65;;
45408;SDS011;31162;51.076;3.784;2023-09-07T04:46:25;20.30;;;18.30;;
45408;SDS011;31162;51.076;3.784;2023-09-07T04:48:51;21.75;;;19.75;;
45408;SDS011;31162;51.076;3.784;2023-09-07T04:51:16;201.90;;;183.30;;
45408;SDS011;31162;51.076;3.784;2023-09-07T04:53:42;28.40;;;25.35;;
45408;SDS011;31162;51.076;3.784;2023-09-07T04:56:08;25.63;;;23.05;;
45408;SDS011;31162;51.076;3.784;2023-09-07T04:58:34;25.40;;;22.95;;
45408;SDS011;31162;51.076;3.784;2023-09-07T05:01:06;24.20;;;21.80;;
45408;SDS011;31162;51.076;3.784;2023-09-07T05:03:35;24.23;;;21.90;;
45408;SDS011;31162;51.076;3.784;2023-09-07T05:06:02;22.35;;;19.88;;
45408;SDS011;31162;51.076;3.784;2023-09-07T05:08:29;21.80;;;19.50;;
45408;SDS011;31162;51.076;3.784;2023-09-07T05:10:58;27.17;;;24.67;;
45408;SDS011;31162;51.076;3.784;2023-09-07T05:13:25;23.85;;;21.65;;
45408;SDS011;31162;51.076;3.784;2023-09-07T05:15:52;21.05;;;18.92;;
45408;SDS011;31162;51.076;3.784;2023-09-07T05:18:18;21.45;;;19.30;;
45408;SDS011;31162;51.076;3.784;2023-09-07T05:20:44;22.27;;;20.08;;
45408;SDS011;31162;51.076;3.784;2023-09-07T05:23:14;21.05;;;18.83;;
45408;SDS011;31162;51.076;3.784;2023-09-07T05:25:59;21.55;;;19.45;;
45408;SDS011;31162;51.076;3.784;2023-09-07T05:28:24;20.55;;;18.45;;
45408;SDS011;31162;51.076;3.784;2023-09-07T05:30:50;21.45;;;19.33;;
45408;SDS011;31162;51.076;3.784;2023-09-07T05:33:18;20.75;;;18.40;;
45408;SDS011;31162;51.076;3.784;2023-09-07T05:35:43;22.67;;;20.48;;
45408;SDS011;31162;51.076;3.784;2023-09-07T05:38:10;23.17;;;20.77;;
45408;SDS011;31162;51.076;3.784;2023-09-07T05:40:37;22.27;;;19.77;;
45408;SDS011;31162;51.076;3.784;2023-09-07T05:43:04;21.35;;;19.17;;
45408;SDS011;31162;51.076;3.784;2023-09-07T05:45:30;22.52;;;20.35;;
45408;SDS011;31162;51.076;3.784;2023-09-07T05:47:59;20.67;;;18.55;;
45408;SDS011;31162;51.076;3.784;2023-09-07T05:50:24;22.92;;;20.45;;
45408;SDS011;31162;51.076;3.784;2023-09-07T05:52:50;23.15;;;20.75;;
45408;SDS011;31162;51.076;3.784;2023-09-07T05:55:16;21.88;;;19.75;;
45408;SDS011;31162;51.076;3.784;2023-09-07T05:57:41;20.83;;;18.85;;
45408;SDS011;31162;51.076;3.784;2023-09-07T06:00:07;19.65;;;17.85;;
45408;SDS011;31162;51.076;3.784;2023-09-07T06:02:33;19.60;;;17.60;;
45408;SDS011;31162;51.076;3.784;2023-09-07T06:04:59;18.02;;;16.33;;
45408;SDS011;31162;51.076;3.784;2023-09-07T06:07:25;15.70;;;14.20;;
45408;SDS011;31162;51.076;3.784;2023-09-07T06:09:51;38.40;;;34.90;;
45408;SDS011;31162;51.076;3.784;2023-09-07T06:12:16;16.92;;;15.35;;
45408;SDS011;31162;51.076;3.784;2023-09-07T06:14:44;14.20;;;12.77;;
45408;SDS011;31162;51.076;3.784;2023-09-07T06:17:10;12.75;;;10.63;;
45408;SDS011;31162;51.076;3.784;2023-09-07T06:19:35;11.18;;;10.15;;
45408;SDS011;31162;51.076;3.784;2023-09-07T06:22:01;15.07;;;10.63;;
45408;SDS011;31162;51.076;3.784;2023-09-07T06:24:27;13.68;;;10.38;;
45408;SDS011;31162;51.076;3.784;2023-09-07T06:26:52;11.27;;;10.27;;
45408;SDS011;31162;51.076;3.784;2023-09-07T06:29:18;11.35;;;10.13;;
45408;SDS011;31162;51.076;3.784;2023-09-07T06:31:44;10.13;;;9.23;;
45408;SDS011;31162;51.076;3.784;2023-09-07T06:34:09;17.13;;;15.48;;
45408;SDS011;31162;51.076;3.784;2023-09-07T06:36:37;14.30;;;13.07;;
45408;SDS011;31162;51.076;3.784;2023-09-07T06:39:06;11.80;;;10.52;;
45408;SDS011;31162;51.076;3.784;2023-09-07T06:41:36;11.13;;;10.07;;
45408;SDS011;31162;51.076;3.784;2023-09-07T06:44:02;11.02;;;9.82;;
45408;SDS011;31162;51.076;3.784;2023-09-07T06:46:28;11.50;;;10.50;;
45408;SDS011;31162;51.076;3.784;2023-09-07T06:48:54;10.85;;;9.85;;
45408;SDS011;31162;51.076;3.784;2023-09-07T06:51:20;10.60;;;9.50;;
45408;SDS011;31162;51.076;3.784;2023-09-07T06:53:45;10.18;;;9.18;;
45408;SDS011;31162;51.076;3.784;2023-09-07T06:56:12;10.35;;;9.38;;
45408;SDS011;31162;51.076;3.784;2023-09-07T06:58:37;11.73;;;10.73;;
45408;SDS011;31162;51.076;3.784;2023-09-07T07:01:03;10.15;;;9.30;;
45408;SDS011;31162;51.076;3.784;2023-09-07T07:03:30;11.40;;;10.32;;
45408;SDS011;31162;51.076;3.784;2023-09-07T07:05:56;10.80;;;9.80;;
45408;SDS011;31162;51.076;3.784;2023-09-07T07:08:22;12.50;;;11.32;;
45408;SDS011;31162;51.076;3.784;2023-09-07T07:10:48;10.98;;;10.07;;
45408;SDS011;31162;51.076;3.784;2023-09-07T07:13:14;10.75;;;9.88;;
45408;SDS011;31162;51.076;3.784;2023-09-07T07:15:41;13.18;;;9.55;;
45408;SDS011;31162;51.076;3.784;2023-09-07T07:18:06;10.75;;;9.85;;
45408;SDS011;31162;51.076;3.784;2023-09-07T07:20:38;11.35;;;10.25;;
45408;SDS011;31162;51.076;3.784;2023-09-07T07:23:04;11.05;;;9.95;;
45408;SDS011;31162;51.076;3.784;2023-09-07T07:25:33;10.52;;;9.45;;
45408;SDS011;31162;51.076;3.784;2023-09-07T07:28:03;9.63;;;8.73;;
45408;SDS011;31162;51.076;3.784;2023-09-07T07:30:34;10.35;;;9.20;;
45408;SDS011;31162;51.076;3.784;2023-09-07T07:33:02;11.15;;;10.02;;
45408;SDS011;31162;51.076;3.784;2023-09-07T07:35:34;9.73;;;8.82;;
45408;SDS011;31162;51.076;3.784;2023-09-07T07:38:01;10.95;;;9.98;;
45408;SDS011;31162;51.076;3.784;2023-09-07T07:40:28;10.50;;;9.70;;
45408;SDS011;31162;51.076;3.784;2023-09-07T07:42:55;10.02;;;9.23;;
45408;SDS011;31162;51.076;3.784;2023-09-07T07:45:20;10.85;;;9.77;;
45408;SDS011;31162;51.076;3.784;2023-09-07T07:47:48;10.73;;;9.68;;
45408;SDS011;31162;51.076;3.784;2023-09-07T07:50:14;10.85;;;9.85;;
45408;SDS011;31162;51.076;3.784;2023-09-07T07:52:40;11.43;;;10.30;;
45408;SDS011;31162;51.076;3.784;2023-09-07T07:55:05;11.02;;;9.95;;
45408;SDS011;31162;51.076;3.784;2023-09-07T07:57:32;10.43;;;9.48;;
45408;SDS011;31162;51.076;3.784;2023-09-07T07:59:57;9.73;;;8.93;;
45408;SDS011;31162;51.076;3.784;2023-09-07T08:02:23;10.75;;;9.73;;
45408;SDS011;31162;51.076;3.784;2023-09-07T08:04:49;11.52;;;10.32;;
45408;SDS011;31162;51.076;3.784;2023-09-07T08:07:15;9.85;;;8.85;;
45408;SDS011;31162;51.076;3.784;2023-09-07T08:09:41;10.43;;;9.30;;
45408;SDS011;31162;51.076;3.784;2023-09-07T08:12:09;9.85;;;9.05;;
45408;SDS011;31162;51.076;3.784;2023-09-07T08:14:35;10.23;;;9.25;;
45408;SDS011;31162;51.076;3.784;2023-09-07T08:17:01;9.73;;;8.82;;
45408;SDS011;31162;51.076;3.784;2023-09-07T08:19:26;9.77;;;8.88;;
45408;SDS011;31162;51.076;3.784;2023-09-07T08:21:56;16.00;;;9.10;;
45408;SDS011;31162;51.076;3.784;2023-09-07T08:24:23;9.80;;;8.80;;
45408;SDS011;31162;51.076;3.784;2023-09-07T08:26:49;8.50;;;7.70;;
45408;SDS011;31162;51.076;3.784;2023-09-07T08:29:16;9.35;;;8.50;;
45408;SDS011;31162;51.076;3.784;2023-09-07T08:31:45;10.10;;;9.15;;
45408;SDS011;31162;51.076;3.784;2023-09-07T08:34:13;8.73;;;7.82;;
45408;SDS011;31162;51.076;3.784;2023-09-07T08:36:40;8.70;;;7.85;;
45408;SDS011;31162;51.076;3.784;2023-09-07T08:39:05;9.10;;;8.43;;
45408;SDS011;31162;51.076;3.784;2023-09-07T08:41:36;9.18;;;8.38;;
45408;SDS011;31162;51.076;3.784;2023-09-07T08:44:15;8.70;;;8.00;;
45408;SDS011;31162;51.076;3.784;2023-09-07T08:46:42;8.13;;;7.50;;
45408;SDS011;31162;51.076;3.784;2023-09-07T08:49:10;8.38;;;7.57;;
45408;SDS011;31162;51.076;3.784;2023-09-07T08:51:36;8.88;;;8.10;;
45408;SDS011;31162;51.076;3.784;2023-09-07T08:54:03;7.38;;;6.78;;
45408;SDS011;31162;51.076;3.784;2023-09-07T08:56:29;7.80;;;7.00;;
45408;SDS011;31162;51.076;3.784;2023-09-07T08:58:56;8.63;;;6.70;;
45408;SDS011;31162;51.076;3.784;2023-09-07T09:01:21;7.80;;;6.65;;
45408;SDS011;31162;51.076;3.784;2023-09-07T09:03:47;7.43;;;5.90;;
45408;SDS011;31162;51.076;3.784;2023-09-07T09:06:14;6.95;;;6.30;;
45408;SDS011;31162;51.076;3.784;2023-09-07T09:08:48;6.75;;;5.78;;
45408;SDS011;31162;51.076;3.784;2023-09-07T09:11:14;8.07;;;5.55;;
45408;SDS011;31162;51.076;3.784;2023-09-07T09:13:41;6.95;;;5.25;;
45408;SDS011;31162;51.076;3.784;2023-09-07T09:16:07;7.32;;;5.80;;
45408;SDS011;31162;51.076;3.784;2023-09-07T09:18:33;5.70;;;5.20;;
45408;SDS011;31162;51.076;3.784;2023-09-07T09:20:59;6.32;;;5.10;;
45408;SDS011;31162;51.076;3.784;2023-09-07T09:23:36;6.72;;;5.80;;
45408;SDS011;31162;51.076;3.784;2023-09-07T09:26:02;8.40;;;7.72;;
45408;SDS011;31162;51.076;3.784;2023-09-07T09:28:33;5.63;;;5.10;;
45408;SDS011;31162;51.076;3.784;2023-09-07T09:31:00;5.17;;;4.70;;
45408;SDS011;31162;51.076;3.784;2023-09-07T09:33:27;5.05;;;4.45;;
45408;SDS011;31162;51.076;3.784;2023-09-07T09:35:55;4.93;;;4.53;;
45408;SDS011;31162;51.076;3.784;2023-09-07T09:38:22;6.32;;;4.80;;
45408;SDS011;31162;51.076;3.784;2023-09-07T09:40:47;5.10;;;4.55;;
45408;SDS011;31162;51.076;3.784;2023-09-07T09:43:14;5.07;;;4.50;;
45408;SDS011;31162;51.076;3.784;2023-09-07T09:45:40;5.88;;;5.30;;
45408;SDS011;31162;51.076;3.784;2023-09-07T09:48:05;5.78;;;5.18;;
45408;SDS011;31162;51.076;3.784;2023-09-07T09:50:32;6.85;;;5.13;;
45408;SDS011;31162;51.076;3.784;2023-09-07T09:53:06;5.60;;;4.75;;
45408;SDS011;31162;51.076;3.784;2023-09-07T09:55:32;5.63;;;5.13;;
45408;SDS011;31162;51.076;3.784;2023-09-07T09:57:58;6.53;;;5.45;;
45408;SDS011;31162;51.076;3.784;2023-09-07T10:00:24;6.88;;;4.60;;
45408;SDS011;31162;51.076;3.784;2023-09-07T10:02:51;5.85;;;4.63;;
45408;SDS011;31162;51.076;3.784;2023-09-07T10:05:25;5.72;;;4.50;;
45408;SDS011;31162;51.076;3.784;2023-09-07T10:07:51;4.85;;;4.45;;
45408;SDS011;31162;51.076;3.784;2023-09-07T10:10:20;5.43;;;4.78;;
45408;SDS011;31162;51.076;3.784;2023-09-07T10:12:52;5.57;;;4.55;;
45408;SDS011;31162;51.076;3.784;2023-09-07T10:17:50;6.85;;;4.90;;
45408;SDS011;31162;51.076;3.784;2023-09-07T10:20:27;6.30;;;4.95;;
45408;SDS011;31162;51.076;3.784;2023-09-07T10:23:01;18.38;;;17.00;;
45408;SDS011;31162;51.076;3.784;2023-09-07T10:25:29;5.80;;;5.38;;
45408;SDS011;31162;51.076;3.784;2023-09-07T10:27:56;5.75;;;4.60;;
45408;SDS011;31162;51.076;3.784;2023-09-07T10:30:21;5.32;;;4.80;;
45408;SDS011;31162;51.076;3.784;2023-09-07T10:32:49;5.63;;;5.13;;
45408;SDS011;31162;51.076;3.784;2023-09-07T10:35:15;5.60;;;5.13;;
45408;SDS011;31162;51.076;3.784;2023-09-07T10:37:47;5.15;;;4.75;;
45408;SDS011;31162;51.076;3.784;2023-09-07T10:40:13;7.40;;;4.28;;
45408;SDS011;31162;51.076;3.784;2023-09-07T10:42:44;6.38;;;4.55;;
45408;SDS011;31162;51.076;3.784;2023-09-07T10:45:13;5.57;;;5.07;;
45408;SDS011;31162;51.076;3.784;2023-09-07T10:47:45;5.63;;;5.07;;
45408;SDS011;31162;51.076;3.784;2023-09-07T10:50:11;7.37;;;4.80;;
45408;SDS011;31162;51.076;3.784;2023-09-07T10:52:38;7.30;;;4.88;;
45408;SDS011;31162;51.076;3.784;2023-09-07T10:55:08;5.43;;;4.78;;
45408;SDS011;31162;51.076;3.784;2023-09-07T10:57:45;5.95;;;5.22;;
45408;SDS011;31162;51.076;3.784;2023-09-07T11:00:11;5.40;;;4.90;;
45408;SDS011;31162;51.076;3.784;2023-09-07T11:02:38;5.55;;;5.05;;
45408;SDS011;31162;51.076;3.784;2023-09-07T11:05:07;5.70;;;5.20;;
45408;SDS011;31162;51.076;3.784;2023-09-07T11:07:33;7.63;;;5.45;;
45408;SDS011;31162;51.076;3.784;2023-09-07T11:10:00;12.32;;;5.05;;
45408;SDS011;31162;51.076;3.784;2023-09-07T11:12:29;6.00;;;5.40;;
45408;SDS011;31162;51.076;3.784;2023-09-07T11:14:54;9.98;;;4.82;;
45408;SDS011;31162;51.076;3.784;2023-09-07T11:17:25;6.45;;;5.72;;
45408;SDS011;31162;51.076;3.784;2023-09-07T11:19:52;6.82;;;5.50;;
45408;SDS011;31162;51.076;3.784;2023-09-07T11:22:18;6.90;;;5.68;;
45408;SDS011;31162;51.076;3.784;2023-09-07T11:24:44;6.22;;;5.63;;
45408;SDS011;31162;51.076;3.784;2023-09-07T11:27:10;6.55;;;5.63;;
45408;SDS011;31162;51.076;3.784;2023-09-07T11:29:36;7.00;;;5.25;;
45408;SDS011;31162;51.076;3.784;2023-09-07T11:32:07;7.00;;;5.55;;
45408;SDS011;31162;51.076;3.784;2023-09-07T11:34:33;6.78;;;5.30;;
45408;SDS011;31162;51.076;3.784;2023-09-07T11:37:01;8.05;;;5.35;;
45408;SDS011;31162;51.076;3.784;2023-09-07T11:39:28;5.95;;;5.25;;
45408;SDS011;31162;51.076;3.784;2023-09-07T11:41:54;5.22;;;4.75;;
45408;SDS011;31162;51.076;3.784;2023-09-07T11:44:19;5.70;;;5.20;;
45408;SDS011;31162;51.076;3.784;2023-09-07T11:46:45;6.05;;;5.45;;
45408;SDS011;31162;51.076;3.784;2023-09-07T11:49:11;6.38;;;5.18;;
45408;SDS011;31162;51.076;3.784;2023-09-07T11:51:37;5.38;;;4.93;;
45408;SDS011;31162;51.076;3.784;2023-09-07T11:54:02;6.65;;;5.90;;
45408;SDS011;31162;51.076;3.784;2023-09-07T11:56:29;7.05;;;4.80;;
45408;SDS011;31162;51.076;3.784;2023-09-07T11:58:55;6.38;;;5.20;;
45408;SDS011;31162;51.076;3.784;2023-09-07T12:01:21;7.38;;;5.30;;
45408;SDS011;31162;51.076;3.784;2023-09-07T12:03:47;7.18;;;4.85;;
45408;SDS011;31162;51.076;3.784;2023-09-07T12:06:13;6.72;;;4.97;;
45408;SDS011;31162;51.076;3.784;2023-09-07T12:08:41;7.30;;;5.10;;
45408;SDS011;31162;51.076;3.784;2023-09-07T12:11:08;6.38;;;5.25;;
45408;SDS011;31162;51.076;3.784;2023-09-07T12:13:33;7.07;;;5.38;;
45408;SDS011;31162;51.076;3.784;2023-09-07T12:15:59;7.78;;;5.45;;
45408;SDS011;31162;51.076;3.784;2023-09-07T12:18:27;5.72;;;4.78;;
45408;SDS011;31162;51.076;3.784;2023-09-07T12:20:52;6.80;;;5.05;;
45408;SDS011;31162;51.076;3.784;2023-09-07T12:23:19;5.82;;;4.90;;
45408;SDS011;31162;51.076;3.784;2023-09-07T12:25:44;8.10;;;4.70;;
45408;SDS011;31162;51.076;3.784;2023-09-07T12:28:15;6.47;;;4.20;;
45408;SDS011;31162;51.076;3.784;2023-09-07T12:30:41;7.63;;;4.25;;
45408;SDS011;31162;51.076;3.784;2023-09-07T12:33:09;5.13;;;4.03;;
45408;SDS011;31162;51.076;3.784;2023-09-07T12:35:35;4.70;;;3.97;;
45408;SDS011;31162;51.076;3.784;2023-09-07T12:38:00;4.32;;;3.92;;
45408;SDS011;31162;51.076;3.784;2023-09-07T12:40:27;4.88;;;3.90;;
45408;SDS011;31162;51.076;3.784;2023-09-07T12:42:52;5.40;;;3.90;;
45408;SDS011;31162;51.076;3.784;2023-09-07T12:45:18;5.38;;;4.40;;
45408;SDS011;31162;51.076;3.784;2023-09-07T12:47:43;5.18;;;3.83;;
45408;SDS011;31162;51.076;3.784;2023-09-07T12:50:09;4.15;;;3.45;;
45408;SDS011;31162;51.076;3.784;2023-09-07T12:52:35;6.18;;;3.85;;
45408;SDS011;31162;51.076;3.784;2023-09-07T12:55:04;4.20;;;3.80;;
45408;SDS011;31162;51.076;3.784;2023-09-07T12:57:30;4.10;;;3.30;;
45408;SDS011;31162;51.076;3.784;2023-09-07T12:59:56;4.53;;;4.18;;
45408;SDS011;31162;51.076;3.784;2023-09-07T13:02:21;4.85;;;3.97;;
45408;SDS011;31162;51.076;3.784;2023-09-07T13:04:47;4.72;;;3.30;;
45408;SDS011;31162;51.076;3.784;2023-09-07T13:07:13;3.97;;;3.60;;
45408;SDS011;31162;51.076;3.784;2023-09-07T13:09:38;7.53;;;4.03;;
45408;SDS011;31162;51.076;3.784;2023-09-07T13:12:04;4.53;;;3.50;;
45408;SDS011;31162;51.076;3.784;2023-09-07T13:14:30;3.78;;;3.33;;
45408;SDS011;31162;51.076;3.784;2023-09-07T13:16:56;4.90;;;3.58;;
45408;SDS011;31162;51.076;3.784;2023-09-07T13:19:21;5.60;;;3.55;;
45408;SDS011;31162;51.076;3.784;2023-09-07T13:21:47;4.43;;;3.30;;
45408;SDS011;31162;51.076;3.784;2023-09-07T13:24:15;4.18;;;3.60;;
45408;SDS011;31162;51.076;3.784;2023-09-07T13:26:41;3.63;;;3.20;;
45408;SDS011;31162;51.076;3.784;2023-09-07T13:29:06;4.22;;;3.53;;
45408;SDS011;31162;51.076;3.784;2023-09-07T13:31:32;5.15;;;3.30;;
45408;SDS011;31162;51.076;3.784;2023-09-07T13:33:58;3.75;;;2.88;;
45408;SDS011;31162;51.076;3.784;2023-09-07T13:36:24;3.47;;;3.15;;
45408;SDS011;31162;51.076;3.784;2023-09-07T13:38:51;4.20;;;3.45;;
45408;SDS011;31162;51.076;3.784;2023-09-07T13:41:19;4.20;;;3.10;;
45408;SDS011;31162;51.076;3.784;2023-09-07T13:43:44;4.35;;;4.00;;
45408;SDS011;31162;51.076;3.784;2023-09-07T13:46:10;4.32;;;3.40;;
45408;SDS011;31162;51.076;3.784;2023-09-07T13:48:36;3.45;;;3.15;;
45408;SDS011;31162;51.076;3.784;2023-09-07T13:51:01;4.50;;;3.20;;
45408;SDS011;31162;51.076;3.784;2023-09-07T13:53:27;3.90;;;3.60;;
45408;SDS011;31162;51.076;3.784;2023-09-07T13:55:53;3.70;;;3.40;;
45408;SDS011;31162;51.076;3.784;2023-09-07T13:58:18;6.85;;;3.40;;
45408;SDS011;31162;51.076;3.784;2023-09-07T14:00:44;4.22;;;3.72;;
45408;SDS011;31162;51.076;3.784;2023-09-07T14:03:14;6.78;;;4.22;;
45408;SDS011;31162;51.076;3.784;2023-09-07T14:05:39;4.60;;;3.22;;
45408;SDS011;31162;51.076;3.784;2023-09-07T14:08:05;4.13;;;3.63;;
45408;SDS011;31162;51.076;3.784;2023-09-07T14:10:31;4.20;;;3.70;;
45408;SDS011;31162;51.076;3.784;2023-09-07T14:12:57;4.18;;;3.58;;
45408;SDS011;31162;51.076;3.784;2023-09-07T14:15:22;5.65;;;3.45;;
45408;SDS011;31162;51.076;3.784;2023-09-07T14:17:48;4.68;;;3.67;;
45408;SDS011;31162;51.076;3.784;2023-09-07T14:20:14;3.88;;;3.45;;
45408;SDS011;31162;51.076;3.784;2023-09-07T14:22:39;4.25;;;3.40;;
45408;SDS011;31162;51.076;3.784;2023-09-07T14:25:05;6.22;;;3.83;;
45408;SDS011;31162;51.076;3.784;2023-09-07T14:27:32;4.22;;;3.38;;
45408;SDS011;31162;51.076;3.784;2023-09-07T14:29:58;5.95;;;3.63;;
45408;SDS011;31162;51.076;3.784;2023-09-07T14:32:23;5.55;;;3.45;;